createdAt,value
2019-05-23T00:00:04.440Z,58.57
2019-05-23T00:01:19.562Z,58.63
2019-05-23T00:02:28.325Z,58.66
2019-05-23T00:03:45.777Z,58.74
2019-05-23T00:04:51.063Z,58.96
2019-05-23T00:06:02.095Z,59.45
2019-05-23T00:07:07.406Z,59.88
2019-05-23T00:08:12.698Z,60.00
2019-05-23T00:09:17.904Z,60.29
2019-05-23T00:10:23.573Z,60.18
2019-05-23T00:11:29.246Z,60.31
2019-05-23T00:12:35.570Z,60.40
2019-05-23T00:13:50.545Z,60.51
2019-05-23T00:14:57.908Z,60.85
2019-05-23T00:16:02.529Z,60.61
2019-05-23T00:17:06.257Z,60.54
2019-05-23T00:18:10.537Z,60.66
2019-05-23T00:19:14.542Z,60.75
2019-05-23T00:20:19.577Z,60.69
2019-05-23T00:21:24.082Z,60.79
2019-05-23T00:22:29.979Z,61.51
2019-05-23T00:23:35.532Z,61.58
2019-05-23T00:24:42.191Z,61.42
2019-05-23T00:25:47.118Z,61.66
2019-05-23T00:26:52.078Z,61.65
2019-05-23T00:27:56.777Z,61.78
2019-05-23T00:29:09.929Z,62.13
2019-05-23T00:30:09.805Z,62.24
2019-05-23T00:31:32.049Z,62.23
2019-05-23T00:32:37.417Z,62.22
2019-05-23T00:33:41.824Z,62.24
2019-05-23T00:34:46.459Z,62.25
2019-05-23T00:35:52.042Z,62.27
2019-05-23T00:36:56.468Z,62.18
2019-05-23T00:38:01.763Z,62.23
2019-05-23T00:39:08.998Z,62.27
2019-05-23T00:40:16.527Z,62.17
2019-05-23T00:41:22.541Z,62.22
2019-05-23T00:42:26.861Z,62.42
2019-05-23T00:43:31.184Z,62.75
2019-05-23T00:44:36.472Z,62.76
2019-05-23T00:45:40.698Z,62.68
2019-05-23T00:46:45.709Z,62.79
2019-05-23T00:47:49.442Z,62.81
2019-05-23T00:48:55.351Z,62.85
2019-05-23T00:49:59.392Z,62.75
2019-05-23T00:51:05.192Z,62.79
2019-05-23T00:52:09.754Z,62.74
2019-05-23T00:53:15.090Z,62.70
2019-05-23T00:54:19.546Z,62.70
2019-05-23T00:55:24.696Z,62.59
2019-05-23T00:56:28.327Z,62.52
2019-05-23T00:57:34.017Z,62.58
2019-05-23T00:58:38.816Z,62.59
2019-05-23T00:59:43.433Z,62.64
2019-05-23T01:00:49.454Z,62.76
2019-05-23T01:01:54.636Z,62.81
2019-05-23T01:02:58.776Z,62.85
2019-05-23T01:04:04.873Z,63.34
2019-05-23T01:05:10.476Z,63.40
2019-05-23T01:06:16.586Z,63.20
2019-05-23T01:07:20.948Z,63.08
2019-05-23T01:08:26.758Z,63.03
2019-05-23T01:09:31.383Z,63.03
2019-05-23T01:10:35.692Z,63.09
2019-05-23T01:11:39.901Z,63.11
2019-05-23T01:12:45.177Z,63.42
2019-05-23T01:13:49.032Z,63.81
2019-05-23T01:14:54.392Z,63.78
2019-05-23T01:15:59.024Z,63.74
2019-05-23T01:17:03.920Z,63.84
2019-05-23T01:18:09.465Z,63.74
2019-05-23T01:19:14.365Z,63.69
2019-05-23T01:20:22.695Z,63.72
2019-05-23T01:21:28.369Z,63.81
2019-05-23T01:22:32.204Z,63.86
2019-05-23T01:23:37.504Z,63.80
2019-05-23T01:24:45.529Z,63.71
2019-05-23T01:25:50.421Z,63.45
2019-05-23T01:26:54.820Z,63.47
2019-05-23T01:27:59.442Z,63.57
2019-05-23T01:29:05.198Z,63.51
2019-05-23T01:30:11.985Z,63.54
2019-05-23T01:31:20.222Z,63.56
2019-05-23T01:32:25.819Z,63.61
2019-05-23T01:33:30.119Z,63.58
2019-05-23T01:34:34.150Z,63.67
2019-05-23T01:35:39.349Z,63.74
2019-05-23T01:36:43.754Z,63.77
2019-05-23T01:37:47.952Z,63.77
2019-05-23T01:38:51.585Z,63.93
2019-05-23T01:39:56.216Z,63.95
2019-05-23T01:41:00.842Z,63.91
2019-05-23T01:42:06.129Z,63.81
2019-05-23T01:43:11.364Z,63.91
2019-05-23T01:44:16.755Z,63.93
2019-05-23T01:45:23.068Z,63.93
2019-05-23T01:46:28.869Z,64.10
2019-05-23T01:47:33.852Z,64.20
2019-05-23T01:48:38.797Z,64.20
2019-05-23T01:49:42.919Z,64.29
2019-05-23T01:50:47.193Z,64.32
2019-05-23T01:51:50.908Z,64.48
2019-05-23T01:52:55.719Z,64.57
2019-05-23T01:53:59.330Z,64.89
2019-05-23T01:55:04.301Z,64.92
2019-05-23T01:56:08.299Z,64.93
2019-05-23T01:57:13.426Z,64.95
2019-05-23T01:58:17.579Z,64.93
2019-05-23T01:59:21.781Z,64.88
2019-05-23T02:00:27.375Z,64.85
2019-05-23T02:01:32.616Z,64.90
2019-05-23T02:02:37.813Z,65.09
2019-05-23T02:03:42.889Z,65.17
2019-05-23T02:04:47.175Z,65.21
2019-05-23T02:05:51.733Z,65.01
2019-05-23T02:06:55.467Z,64.83
2019-05-23T02:08:00.792Z,64.71
2019-05-23T02:09:08.285Z,64.80
2019-05-23T02:10:13.332Z,64.95
2019-05-23T02:11:17.726Z,65.01
2019-05-23T02:12:23.053Z,64.92
2019-05-23T02:13:27.801Z,64.73
2019-05-23T02:14:32.078Z,64.71
2019-05-23T02:15:35.708Z,64.91
2019-05-23T02:16:40.210Z,65.00
2019-05-23T02:17:43.891Z,64.98
2019-05-23T02:18:49.082Z,64.84
2019-05-23T02:19:53.417Z,65.22
2019-05-23T02:20:58.113Z,65.16
2019-05-23T02:22:02.136Z,65.06
2019-05-23T02:23:08.181Z,64.95
2019-05-23T02:24:12.594Z,65.71
2019-05-23T02:25:18.189Z,65.56
2019-05-23T02:26:23.680Z,65.51
2019-05-23T02:27:28.671Z,65.52
2019-05-23T02:28:33.099Z,65.61
2019-05-23T02:29:37.608Z,65.53
2019-05-23T02:30:42.315Z,65.55
2019-05-23T02:31:47.129Z,65.45
2019-05-23T02:32:51.719Z,65.32
2019-05-23T02:33:56.318Z,65.23
2019-05-23T02:35:00.577Z,65.37
2019-05-23T02:36:05.462Z,65.31
2019-05-23T02:37:14.193Z,65.26
2019-05-23T02:38:35.197Z,65.06
2019-05-23T02:39:40.792Z,65.11
2019-05-23T02:40:46.350Z,65.17
2019-05-23T02:41:55.173Z,65.19
2019-05-23T02:43:09.143Z,65.28
2019-05-23T02:44:17.170Z,65.23
2019-05-23T02:45:24.025Z,65.37
2019-05-23T02:46:29.265Z,65.38
2019-05-23T02:47:38.810Z,65.60
2019-05-23T02:48:43.493Z,66.49
2019-05-23T02:49:50.073Z,67.73
2019-05-23T02:50:58.292Z,67.33
2019-05-23T02:52:14.407Z,66.87
2019-05-23T02:53:20.000Z,66.67
2019-05-23T02:54:27.317Z,66.72
2019-05-23T02:55:37.463Z,66.93
2019-05-23T02:56:42.983Z,66.88
2019-05-23T02:57:48.914Z,66.87
2019-05-23T02:59:02.337Z,66.82
2019-05-23T03:00:54.405Z,66.83
2019-05-23T03:02:27.902Z,66.84
2019-05-23T03:03:33.971Z,66.86
2019-05-23T03:04:38.665Z,67.07
2019-05-23T03:05:44.553Z,67.04
2019-05-23T03:06:49.241Z,67.10
2019-05-23T03:07:53.969Z,67.27
2019-05-23T03:08:59.574Z,67.42
2019-05-23T03:10:06.418Z,67.35
2019-05-23T03:11:29.866Z,67.26
2019-05-23T03:12:35.526Z,67.24
2019-05-23T03:13:41.803Z,67.19
2019-05-23T03:14:46.347Z,67.09
2019-05-23T03:15:52.062Z,66.77
2019-05-23T03:16:59.657Z,66.65
2019-05-23T03:18:05.508Z,66.67
2019-05-23T03:19:19.710Z,67.62
2019-05-23T03:20:24.030Z,67.56
2019-05-23T03:21:29.204Z,67.43
2019-05-23T03:22:37.403Z,67.52
2019-05-23T03:23:44.249Z,67.59
2019-05-23T03:24:49.507Z,67.47
2019-05-23T03:26:00.086Z,67.36
2019-05-23T03:27:05.785Z,67.15
2019-05-23T03:28:13.219Z,66.84
2019-05-23T03:29:16.943Z,66.96
2019-05-23T03:30:24.784Z,66.90
2019-05-23T03:31:39.279Z,66.85
2019-05-23T03:32:53.492Z,66.81
2019-05-23T03:33:57.330Z,66.71
2019-05-23T03:35:11.639Z,66.83
2019-05-23T03:36:16.168Z,67.94
2019-05-23T03:37:20.767Z,67.90
2019-05-23T03:38:24.409Z,67.68
2019-05-23T03:39:29.792Z,67.78
2019-05-23T03:40:35.641Z,67.65
2019-05-23T03:41:41.597Z,67.43
2019-05-23T03:42:46.036Z,67.48
2019-05-23T03:43:50.267Z,67.39
2019-05-23T03:44:54.819Z,67.23
2019-05-23T03:46:09.707Z,67.36
2019-05-23T03:47:15.660Z,67.48
2019-05-23T03:48:21.242Z,67.53
2019-05-23T03:49:25.577Z,67.53
2019-05-23T03:50:30.766Z,67.51
2019-05-23T03:51:34.854Z,67.55
2019-05-23T03:52:40.058Z,68.00
2019-05-23T03:53:45.635Z,68.19
2019-05-23T03:54:50.955Z,67.95
2019-05-23T03:55:54.587Z,67.94
2019-05-23T03:57:00.149Z,67.79
2019-05-23T03:58:05.550Z,67.83
2019-05-23T03:59:11.794Z,67.75
2019-05-23T04:00:17.097Z,67.64
2019-05-23T04:01:22.346Z,67.49
2019-05-23T04:02:26.544Z,67.40
2019-05-23T04:03:31.163Z,67.23
2019-05-23T04:04:34.790Z,67.03
2019-05-23T04:05:39.202Z,66.88
2019-05-23T04:06:42.995Z,66.76
2019-05-23T04:07:50.102Z,66.65
2019-05-23T04:08:54.162Z,66.63
2019-05-23T04:09:58.943Z,66.74
2019-05-23T04:11:03.608Z,66.87
2019-05-23T04:12:08.655Z,66.77
2019-05-23T04:13:12.716Z,66.62
2019-05-23T04:14:18.004Z,66.50
2019-05-23T04:15:22.921Z,66.45
2019-05-23T04:16:30.461Z,66.36
2019-05-23T04:17:33.050Z,66.20
2019-05-23T04:18:38.032Z,65.96
2019-05-23T04:19:43.224Z,66.21
2019-05-23T04:20:47.482Z,66.21
2019-05-23T04:21:51.494Z,66.04
2019-05-23T04:22:55.791Z,66.02
2019-05-23T04:23:59.895Z,65.98
2019-05-23T04:25:06.015Z,66.17
2019-05-23T04:26:10.214Z,67.13
2019-05-23T04:27:14.557Z,68.13
2019-05-23T04:28:18.573Z,67.65
2019-05-23T04:29:23.887Z,67.23
2019-05-23T04:30:27.568Z,67.19
2019-05-23T04:31:31.967Z,67.42
2019-05-23T04:32:36.037Z,67.62
2019-05-23T04:33:40.322Z,68.26
2019-05-23T04:34:44.729Z,67.54
2019-05-23T04:35:49.032Z,67.49
2019-05-23T04:36:52.831Z,67.44
2019-05-23T04:37:57.135Z,67.12
2019-05-23T04:39:00.886Z,67.09
2019-05-23T04:40:08.000Z,66.70
2019-05-23T04:41:11.661Z,65.54
2019-05-23T04:42:16.564Z,66.21
2019-05-23T04:43:20.688Z,66.47
2019-05-23T04:44:25.088Z,66.42
2019-05-23T04:45:30.201Z,66.55
2019-05-23T04:46:34.437Z,64.34
2019-05-23T04:47:38.410Z,65.41
2019-05-23T04:48:43.492Z,65.92
2019-05-23T04:49:47.689Z,65.04
2019-05-23T04:50:52.228Z,65.09
2019-05-23T04:51:56.060Z,65.49
2019-05-23T04:53:01.062Z,65.51
2019-05-23T04:54:06.485Z,64.11
2019-05-23T04:55:13.467Z,63.71
2019-05-23T04:56:17.309Z,63.76
2019-05-23T04:57:23.492Z,64.02
2019-05-23T04:58:27.132Z,63.87
2019-05-23T04:59:31.732Z,63.81
2019-05-23T05:00:36.029Z,63.82
2019-05-23T05:01:41.142Z,63.72
2019-05-23T05:02:45.795Z,63.57
2019-05-23T05:03:51.063Z,63.65
2019-05-23T05:04:54.820Z,63.58
2019-05-23T05:05:59.616Z,63.92
2019-05-23T05:07:04.105Z,63.62
2019-05-23T05:08:08.705Z,63.68
2019-05-23T05:09:13.966Z,63.81
2019-05-23T05:10:21.106Z,63.59
2019-05-23T05:11:24.754Z,63.78
2019-05-23T05:12:29.186Z,63.81
2019-05-23T05:13:34.520Z,63.60
2019-05-23T05:14:39.005Z,63.37
2019-05-23T05:15:43.072Z,63.51
2019-05-23T05:16:47.204Z,63.51
2019-05-23T05:17:53.100Z,63.44
2019-05-23T05:18:57.382Z,63.46
2019-05-23T05:20:01.693Z,63.52
2019-05-23T05:21:06.208Z,63.61
2019-05-23T05:22:10.587Z,63.56
2019-05-23T05:23:15.226Z,63.34
2019-05-23T05:24:19.418Z,63.29
2019-05-23T05:25:24.003Z,63.26
2019-05-23T05:26:27.923Z,63.19
2019-05-23T05:27:32.486Z,63.36
2019-05-23T05:28:36.210Z,63.22
2019-05-23T05:29:40.403Z,63.36
2019-05-23T05:30:44.415Z,63.46
2019-05-23T05:31:48.598Z,63.32
2019-05-23T05:32:52.179Z,63.22
2019-05-23T05:33:57.217Z,62.92
2019-05-23T05:35:00.903Z,62.92
2019-05-23T05:36:05.133Z,63.04
2019-05-23T05:37:08.770Z,62.93
2019-05-23T05:38:13.088Z,62.67
2019-05-23T05:39:18.072Z,62.20
2019-05-23T05:40:22.599Z,61.95
2019-05-23T05:41:26.393Z,62.04
2019-05-23T05:42:30.875Z,62.12
2019-05-23T05:43:35.550Z,61.91
2019-05-23T05:44:40.546Z,61.87
2019-05-23T05:45:44.498Z,61.94
2019-05-23T05:46:49.671Z,61.96
2019-05-23T05:47:53.456Z,62.31
2019-05-23T05:48:58.141Z,62.44
2019-05-23T05:50:02.756Z,62.55
2019-05-23T05:51:07.246Z,62.29
2019-05-23T05:52:11.472Z,61.95
2019-05-23T05:53:15.953Z,61.91
2019-05-23T05:54:20.491Z,62.01
2019-05-23T05:55:24.697Z,62.13
2019-05-23T05:56:28.332Z,61.87
2019-05-23T05:57:32.955Z,61.33
2019-05-23T05:58:36.586Z,60.90
2019-05-23T05:59:41.159Z,60.79
2019-05-23T06:00:49.424Z,60.40
2019-05-23T06:01:53.407Z,60.16
2019-05-23T06:03:05.547Z,59.86
2019-05-23T06:04:05.644Z,59.64
2019-05-23T06:05:11.786Z,59.25
2019-05-23T06:06:22.952Z,59.18
2019-05-23T06:07:33.943Z,59.17
2019-05-23T06:08:39.233Z,59.25
2019-05-23T06:09:43.637Z,59.21
2019-05-23T06:10:47.253Z,58.79
2019-05-23T06:11:51.569Z,58.56
2019-05-23T06:12:55.355Z,58.64
2019-05-23T06:13:59.655Z,58.79
2019-05-23T06:15:03.910Z,58.89
2019-05-23T06:16:08.247Z,58.78
2019-05-23T06:17:13.830Z,58.67
2019-05-23T06:18:18.053Z,58.44
2019-05-23T06:19:22.011Z,58.21
2019-05-23T06:20:26.740Z,58.23
2019-05-23T06:21:30.592Z,57.92
2019-05-23T06:22:35.407Z,57.36
2019-05-23T06:23:39.618Z,57.34
2019-05-23T06:24:51.099Z,57.83
2019-05-23T06:25:49.482Z,57.85
2019-05-23T06:26:54.299Z,57.76
2019-05-23T06:27:59.935Z,57.63
2019-05-23T06:29:05.558Z,56.96
2019-05-23T06:30:12.660Z,56.93
2019-05-23T06:31:18.251Z,57.11
2019-05-23T06:32:24.286Z,57.26
2019-05-23T06:33:29.048Z,57.13
2019-05-23T06:34:32.985Z,56.95
2019-05-23T06:35:38.679Z,56.52
2019-05-23T06:36:43.486Z,56.64
2019-05-23T06:37:47.805Z,56.29
2019-05-23T06:38:52.174Z,56.46
2019-05-23T06:39:57.431Z,55.76
2019-05-23T06:41:02.856Z,55.47
2019-05-23T06:42:08.506Z,56.07
2019-05-23T06:43:12.348Z,55.73
2019-05-23T06:44:17.992Z,55.48
2019-05-23T06:45:21.829Z,55.09
2019-05-23T06:46:26.409Z,55.43
2019-05-23T06:47:31.217Z,55.22
2019-05-23T06:48:36.398Z,54.38
2019-05-23T06:49:40.172Z,54.13
2019-05-23T06:50:44.683Z,54.15
2019-05-23T06:51:48.313Z,53.85
2019-05-23T06:52:52.553Z,53.67
2019-05-23T06:53:57.159Z,54.16
2019-05-23T06:55:01.417Z,53.81
2019-05-23T06:56:05.441Z,53.89
2019-05-23T06:57:09.661Z,53.59
2019-05-23T06:58:13.832Z,53.46
2019-05-23T06:59:18.437Z,53.20
2019-05-23T07:00:23.783Z,53.48
2019-05-23T07:01:28.635Z,53.29
2019-05-23T07:02:32.479Z,52.55
2019-05-23T07:03:42.667Z,53.16
2019-05-23T07:04:42.681Z,52.73
2019-05-23T07:05:46.932Z,52.90
2019-05-23T07:06:50.969Z,52.80
2019-05-23T07:07:55.204Z,52.51
2019-05-23T07:08:59.379Z,51.89
2019-05-23T07:10:06.260Z,51.74
2019-05-23T07:11:09.933Z,51.25
2019-05-23T07:12:14.171Z,50.48
2019-05-23T07:13:19.002Z,51.08
2019-05-23T07:14:23.211Z,51.26
2019-05-23T07:15:28.914Z,51.28
2019-05-23T07:16:33.277Z,51.42
2019-05-23T07:17:37.130Z,50.80
2019-05-23T07:18:43.150Z,50.77
2019-05-23T07:19:47.002Z,49.25
2019-05-23T07:20:51.585Z,49.06
2019-05-23T07:21:55.525Z,49.35
2019-05-23T07:23:00.460Z,48.83
2019-05-23T07:24:04.392Z,49.05
2019-05-23T07:25:09.406Z,49.20
2019-05-23T07:26:14.157Z,49.06
2019-05-23T07:27:19.458Z,48.83
2019-05-23T07:28:23.083Z,48.59
2019-05-23T07:29:27.311Z,48.70
2019-05-23T07:30:31.064Z,48.84
2019-05-23T07:31:35.732Z,48.40
2019-05-23T07:32:39.634Z,48.76
2019-05-23T07:34:00.389Z,48.39
2019-05-23T07:34:49.242Z,47.73
2019-05-23T07:35:54.362Z,47.24
2019-05-23T07:36:58.698Z,46.82
2019-05-23T07:38:02.918Z,46.66
2019-05-23T07:39:11.452Z,46.05
2019-05-23T07:40:16.001Z,46.40
2019-05-23T07:41:19.721Z,46.39
2019-05-23T07:42:23.965Z,46.07
2019-05-23T07:43:27.854Z,45.05
2019-05-23T07:44:47.421Z,44.98
2019-05-23T07:45:42.711Z,45.45
2019-05-23T07:46:46.992Z,44.70
2019-05-23T07:47:50.704Z,43.95
2019-05-23T07:48:55.283Z,43.29
2019-05-23T07:49:58.852Z,43.49
2019-05-23T07:51:03.489Z,43.81
2019-05-23T07:52:07.136Z,42.92
2019-05-23T07:53:12.638Z,42.57
2019-05-23T07:54:20.981Z,42.61
2019-05-23T07:55:45.241Z,43.31
2019-05-23T07:56:48.943Z,44.10
2019-05-23T07:57:53.361Z,41.91
2019-05-23T07:58:57.063Z,42.23
2019-05-23T08:00:01.839Z,41.70
2019-05-23T08:01:10.087Z,41.47
2019-05-23T08:02:19.023Z,42.09
2019-05-23T08:03:24.196Z,40.80
2019-05-23T08:04:28.722Z,40.87
2019-05-23T08:05:32.922Z,41.43
2019-05-23T08:06:37.718Z,41.51
2019-05-23T08:07:41.504Z,40.10
2019-05-23T08:08:45.946Z,39.89
2019-05-23T08:09:50.190Z,39.82
2019-05-23T08:10:54.810Z,40.07
2019-05-23T08:11:58.435Z,39.83
2019-05-23T08:13:02.817Z,39.10
2019-05-23T08:14:11.449Z,38.91
2019-05-23T08:15:14.865Z,39.46
2019-05-23T08:16:18.571Z,40.02
2019-05-23T08:17:23.053Z,39.57
2019-05-23T08:18:27.085Z,39.24
2019-05-23T08:19:48.553Z,39.58
2019-05-23T08:20:38.191Z,39.28
2019-05-23T08:21:42.209Z,38.58
2019-05-23T08:22:47.254Z,39.32
2019-05-23T08:23:51.870Z,38.26
2019-05-23T08:24:55.891Z,37.92
2019-05-23T08:26:00.303Z,37.29
2019-05-23T08:27:05.524Z,37.35
2019-05-23T08:28:09.753Z,36.85
2019-05-23T08:29:25.271Z,37.34
2019-05-23T08:30:19.811Z,37.13
2019-05-23T08:31:24.184Z,37.98
2019-05-23T08:32:28.810Z,37.08
2019-05-23T08:33:34.130Z,37.69
2019-05-23T08:34:42.189Z,37.53
2019-05-23T08:35:46.329Z,37.87
2019-05-23T08:36:50.877Z,36.85
2019-05-23T08:37:55.093Z,35.20
2019-05-23T08:39:00.192Z,36.51
2019-05-23T08:40:05.994Z,36.62
2019-05-23T08:41:10.595Z,35.97
2019-05-23T08:42:14.635Z,36.08
2019-05-23T08:43:19.249Z,36.58
2019-05-23T08:44:23.020Z,36.44
2019-05-23T08:45:27.264Z,36.82
2019-05-23T08:46:30.955Z,36.36
2019-05-23T08:47:35.679Z,35.89
2019-05-23T08:48:39.399Z,35.81
2019-05-23T08:49:44.063Z,35.04
2019-05-23T08:50:51.243Z,35.97
2019-05-23T08:51:54.038Z,36.21
2019-05-23T08:52:58.016Z,35.86
2019-05-23T08:54:02.665Z,36.56
2019-05-23T08:55:18.119Z,36.54
2019-05-23T08:56:22.701Z,37.55
2019-05-23T08:57:26.520Z,37.10
2019-05-23T08:58:30.767Z,37.01
2019-05-23T08:59:34.506Z,36.70
2019-05-23T09:00:40.207Z,35.92
2019-05-23T09:01:44.205Z,35.91
2019-05-23T09:02:50.215Z,36.92
2019-05-23T09:03:53.884Z,35.70
2019-05-23T09:05:05.514Z,35.99
2019-05-23T09:06:05.380Z,36.33
2019-05-23T09:07:10.978Z,36.20
2019-05-23T09:08:16.943Z,36.87
2019-05-23T09:09:29.564Z,37.15
2019-05-23T09:10:27.378Z,38.03
2019-05-23T09:11:33.598Z,37.10
2019-05-23T09:12:37.631Z,38.08
2019-05-23T09:13:42.113Z,36.74
2019-05-23T09:14:46.052Z,36.50
2019-05-23T09:15:52.736Z,35.22
2019-05-23T09:16:56.226Z,36.98
2019-05-23T09:18:00.463Z,36.51
2019-05-23T09:19:04.113Z,35.47
2019-05-23T09:20:09.744Z,36.64
2019-05-23T09:21:13.826Z,37.32
2019-05-23T09:22:18.602Z,36.33
2019-05-23T09:23:22.301Z,35.56
2019-05-23T09:24:26.533Z,35.63
2019-05-23T09:25:30.682Z,35.60
2019-05-23T09:26:35.761Z,35.35
2019-05-23T09:27:39.712Z,34.88
2019-05-23T09:28:44.634Z,35.09
2019-05-23T09:29:48.554Z,34.81
2019-05-23T09:30:52.822Z,35.08
2019-05-23T09:31:56.452Z,35.09
2019-05-23T09:33:00.688Z,35.54
2019-05-23T09:34:04.341Z,36.58
2019-05-23T09:35:20.395Z,36.00
2019-05-23T09:36:14.613Z,35.44
2019-05-23T09:37:19.612Z,35.37
2019-05-23T09:38:23.829Z,35.31
2019-05-23T09:39:28.769Z,34.94
2019-05-23T09:40:32.808Z,36.53
2019-05-23T09:41:38.058Z,36.60
2019-05-23T09:42:41.631Z,36.07
2019-05-23T09:43:46.075Z,36.03
2019-05-23T09:44:49.614Z,36.98
2019-05-23T09:45:53.988Z,36.84
2019-05-23T09:46:57.993Z,37.05
2019-05-23T09:48:02.484Z,34.52
2019-05-23T09:49:10.697Z,34.78
2019-05-23T09:50:16.941Z,33.76
2019-05-23T09:51:21.258Z,34.37
2019-05-23T09:52:27.222Z,35.66
2019-05-23T09:53:31.009Z,36.35
2019-05-23T09:54:35.296Z,36.09
2019-05-23T09:55:38.939Z,34.45
2019-05-23T09:56:43.740Z,34.42
2019-05-23T09:57:47.511Z,35.43
2019-05-23T09:58:52.015Z,34.70
2019-05-23T09:59:57.041Z,35.06
2019-05-23T10:01:01.451Z,34.50
2019-05-23T10:02:05.827Z,34.45
2019-05-23T10:03:10.616Z,33.47
2019-05-23T10:04:14.604Z,34.33
2019-05-23T10:05:19.146Z,33.52
2019-05-23T10:06:22.786Z,35.46
2019-05-23T10:07:27.199Z,34.57
2019-05-23T10:08:30.884Z,34.94
2019-05-23T10:09:35.162Z,33.86
2019-05-23T10:10:39.306Z,33.88
2019-05-23T10:11:44.053Z,33.10
2019-05-23T10:12:47.846Z,33.90
2019-05-23T10:13:52.065Z,34.74
2019-05-23T10:14:55.778Z,34.77
2019-05-23T10:16:01.448Z,34.48
2019-05-23T10:17:05.341Z,34.45
2019-05-23T10:18:23.212Z,33.26
2019-05-23T10:19:26.793Z,34.81
2019-05-23T10:20:34.418Z,33.79
2019-05-23T10:21:38.038Z,34.42
2019-05-23T10:22:42.209Z,34.92
2019-05-23T10:23:45.798Z,33.87
2019-05-23T10:24:50.231Z,34.84
2019-05-23T10:25:54.253Z,32.46
2019-05-23T10:26:58.486Z,32.73
2019-05-23T10:28:02.287Z,32.65
2019-05-23T10:29:06.836Z,33.54
2019-05-23T10:30:12.535Z,32.07
2019-05-23T10:31:17.031Z,32.87
2019-05-23T10:32:21.126Z,32.12
2019-05-23T10:33:25.362Z,31.74
2019-05-23T10:34:29.112Z,31.98
2019-05-23T10:35:34.092Z,33.59
2019-05-23T10:36:37.752Z,34.17
2019-05-23T10:37:42.331Z,33.26
2019-05-23T10:38:45.966Z,33.88
2019-05-23T10:39:53.145Z,33.67
2019-05-23T10:40:56.786Z,31.94
2019-05-23T10:42:01.003Z,32.94
2019-05-23T10:43:05.234Z,32.29
2019-05-23T10:44:09.697Z,32.12
2019-05-23T10:45:14.147Z,32.11
2019-05-23T10:46:18.448Z,30.57
2019-05-23T10:47:22.170Z,30.05
2019-05-23T10:48:26.876Z,30.42
2019-05-23T10:49:30.510Z,31.10
2019-05-23T10:50:44.153Z,31.75
2019-05-23T10:51:40.355Z,32.75
2019-05-23T10:52:44.503Z,31.43
2019-05-23T10:53:48.153Z,30.27
2019-05-23T10:54:52.703Z,29.88
2019-05-23T10:55:56.524Z,30.24
2019-05-23T10:57:00.751Z,30.18
2019-05-23T10:58:05.170Z,30.24
2019-05-23T10:59:09.444Z,29.56
2019-05-23T11:00:14.914Z,29.96
2019-05-23T11:01:20.055Z,29.66
2019-05-23T11:02:26.874Z,29.13
2019-05-23T11:03:30.887Z,29.62
2019-05-23T11:04:34.820Z,29.93
2019-05-23T11:05:39.031Z,29.91
2019-05-23T11:06:43.171Z,29.79
2019-05-23T11:07:47.323Z,31.15
2019-05-23T11:08:51.063Z,29.86
2019-05-23T11:09:55.973Z,29.80
2019-05-23T11:10:59.892Z,30.10
2019-05-23T11:12:04.743Z,29.52
2019-05-23T11:13:08.440Z,29.82
2019-05-23T11:14:12.745Z,29.60
2019-05-23T11:15:17.143Z,30.40
2019-05-23T11:16:21.631Z,30.00
2019-05-23T11:17:25.984Z,30.42
2019-05-23T11:18:30.475Z,29.99
2019-05-23T11:19:34.670Z,31.50
2019-05-23T11:20:38.905Z,32.20
2019-05-23T11:21:42.640Z,30.75
2019-05-23T11:22:46.966Z,30.92
2019-05-23T11:23:55.233Z,31.77
2019-05-23T11:25:00.266Z,30.73
2019-05-23T11:26:04.350Z,30.44
2019-05-23T11:27:09.042Z,29.54
2019-05-23T11:28:12.739Z,30.01
2019-05-23T11:29:16.960Z,30.72
2019-05-23T11:30:31.033Z,30.98
2019-05-23T11:31:35.712Z,31.30
2019-05-23T11:32:39.876Z,30.89
2019-05-23T11:33:44.115Z,31.31
2019-05-23T11:34:48.718Z,31.72
2019-05-23T11:35:53.210Z,32.64
2019-05-23T11:36:56.954Z,32.31
2019-05-23T11:38:01.194Z,32.68
2019-05-23T11:39:07.529Z,32.75
2019-05-23T11:40:11.762Z,32.39
2019-05-23T11:41:15.938Z,32.66
2019-05-23T11:42:20.154Z,32.79
2019-05-23T11:43:24.288Z,33.01
2019-05-23T11:44:28.654Z,33.38
2019-05-23T11:45:34.308Z,33.50
2019-05-23T11:46:39.495Z,34.11
2019-05-23T11:47:43.154Z,34.40
2019-05-23T11:48:47.375Z,33.91
2019-05-23T11:49:52.219Z,34.09
2019-05-23T11:50:56.462Z,34.39
2019-05-23T11:52:00.301Z,34.59
2019-05-23T11:53:04.931Z,33.83
2019-05-23T11:54:10.317Z,34.01
2019-05-23T11:55:15.344Z,33.89
2019-05-23T11:56:19.794Z,34.52
2019-05-23T11:57:24.076Z,34.78
2019-05-23T11:58:32.154Z,35.32
2019-05-23T11:59:34.326Z,35.12
2019-05-23T12:00:55.151Z,35.38
2019-05-23T12:02:16.061Z,35.89
2019-05-23T12:03:19.806Z,36.51
2019-05-23T12:04:24.491Z,36.91
2019-05-23T12:05:29.559Z,37.35
2019-05-23T12:06:54.553Z,37.59
2019-05-23T12:07:49.770Z,37.92
2019-05-23T12:08:54.193Z,38.53
2019-05-23T12:09:58.121Z,38.62
2019-05-23T12:11:02.408Z,38.83
2019-05-23T12:12:08.063Z,39.39
2019-05-23T12:13:12.335Z,39.17
2019-05-23T12:14:16.049Z,39.72
2019-05-23T12:15:22.130Z,40.29
2019-05-23T12:16:26.095Z,40.32
2019-05-23T12:17:32.825Z,40.42
2019-05-23T12:18:36.437Z,40.81
2019-05-23T12:19:40.734Z,40.35
2019-05-23T12:20:44.573Z,40.67
2019-05-23T12:21:48.782Z,41.09
2019-05-23T12:22:52.916Z,41.30
2019-05-23T12:23:57.188Z,41.45
2019-05-23T12:25:19.987Z,42.26
2019-05-23T12:26:07.102Z,42.60
2019-05-23T12:27:11.223Z,43.69
2019-05-23T12:28:17.132Z,44.88
2019-05-23T12:29:20.866Z,45.09
2019-05-23T12:30:25.099Z,44.48
2019-05-23T12:31:28.819Z,45.61
2019-05-23T12:32:33.347Z,44.88
2019-05-23T12:33:37.378Z,45.30
2019-05-23T12:34:42.118Z,45.11
2019-05-23T12:35:45.743Z,45.37
2019-05-23T12:36:50.051Z,45.58
2019-05-23T12:37:54.056Z,45.96
2019-05-23T12:38:58.382Z,46.26
2019-05-23T12:40:02.899Z,46.07
2019-05-23T12:41:08.174Z,45.89
2019-05-23T12:42:11.859Z,46.05
2019-05-23T12:43:16.054Z,45.77
2019-05-23T12:44:20.234Z,45.50
2019-05-23T12:45:24.761Z,45.41
2019-05-23T12:46:28.799Z,45.64
2019-05-23T12:47:36.972Z,45.95
2019-05-23T12:48:45.392Z,45.80
2019-05-23T12:49:51.017Z,46.60
2019-05-23T12:51:08.986Z,46.98
2019-05-23T12:52:13.874Z,47.56
2019-05-23T12:53:17.885Z,48.10
2019-05-23T12:54:22.201Z,48.09
2019-05-23T12:55:25.864Z,48.51
2019-05-23T12:56:30.719Z,48.84
2019-05-23T12:57:34.560Z,49.69
2019-05-23T12:58:39.677Z,50.40
2019-05-23T12:59:43.683Z,50.60
2019-05-23T13:00:48.477Z,51.81
2019-05-23T13:01:53.941Z,52.63
2019-05-23T13:02:58.492Z,52.98
2019-05-23T13:04:02.594Z,53.38
2019-05-23T13:05:09.814Z,54.19
2019-05-23T13:06:13.864Z,52.34
2019-05-23T13:07:34.403Z,51.62
2019-05-23T13:08:24.121Z,52.54
2019-05-23T13:09:29.364Z,51.05
2019-05-23T13:10:33.760Z,51.13
2019-05-23T13:11:38.771Z,51.50
2019-05-23T13:12:42.446Z,52.37
2019-05-23T13:13:46.651Z,52.47
2019-05-23T13:14:54.390Z,51.78
2019-05-23T13:15:56.282Z,52.08
2019-05-23T13:17:01.520Z,51.31
2019-05-23T13:18:06.828Z,51.52
2019-05-23T13:19:10.955Z,52.61
2019-05-23T13:20:15.271Z,52.83
2019-05-23T13:21:18.927Z,51.68
2019-05-23T13:22:23.360Z,50.23
2019-05-23T13:23:28.449Z,49.57
2019-05-23T13:24:51.283Z,52.76
2019-05-23T13:25:38.787Z,52.88
2019-05-23T13:26:42.994Z,53.72
2019-05-23T13:27:46.949Z,53.63
2019-05-23T13:28:51.188Z,53.69
2019-05-23T13:29:54.886Z,54.71
2019-05-23T13:30:59.101Z,53.42
2019-05-23T13:32:03.100Z,52.22
2019-05-23T13:33:07.993Z,51.50
2019-05-23T13:34:11.647Z,53.29
2019-05-23T13:35:15.868Z,51.61
2019-05-23T13:36:19.767Z,51.82
2019-05-23T13:37:25.052Z,52.11
2019-05-23T13:38:28.679Z,52.16
2019-05-23T13:39:32.932Z,50.06
2019-05-23T13:40:36.559Z,49.35
2019-05-23T13:41:40.792Z,51.14
2019-05-23T13:42:44.811Z,49.16
2019-05-23T13:43:49.358Z,48.86
2019-05-23T13:44:53.234Z,45.63
2019-05-23T13:45:57.753Z,46.48
2019-05-23T13:47:01.392Z,46.16
2019-05-23T13:48:06.004Z,45.58
2019-05-23T13:49:09.910Z,43.86
2019-05-23T13:50:14.739Z,44.54
2019-05-23T13:51:18.386Z,44.35
2019-05-23T13:52:22.599Z,42.11
2019-05-23T13:53:26.631Z,41.75
2019-05-23T13:54:35.709Z,41.01
2019-05-23T13:55:38.171Z,40.64
2019-05-23T13:56:47.378Z,41.61
2019-05-23T13:57:48.301Z,41.64
2019-05-23T13:58:53.395Z,41.55
2019-05-23T13:59:57.054Z,41.74